createdAt,value
2018-08-03T00:01:11.789Z,57.07
2018-08-03T00:02:11.765Z,56.97
2018-08-03T00:04:05.221Z,56.71
2018-08-03T00:05:05.233Z,56.77
2018-08-03T00:06:58.284Z,56.81
2018-08-03T00:07:58.290Z,56.90
2018-08-03T00:09:51.318Z,57.09
2018-08-03T00:10:51.349Z,57.09
2018-08-03T00:12:44.393Z,56.90
2018-08-03T00:13:44.404Z,56.90
2018-08-03T00:15:37.427Z,56.77
2018-08-03T00:16:37.457Z,57.07
2018-08-03T00:18:30.514Z,57.07
2018-08-03T00:19:30.518Z,56.87
2018-08-03T00:21:23.540Z,57.45
2018-08-03T00:22:23.570Z,57.36
2018-08-03T00:24:17.025Z,57.07
2018-08-03T00:25:17.035Z,57.84
2018-08-03T00:27:10.066Z,58.52
2018-08-03T00:28:10.091Z,57.84
2018-08-03T00:30:03.138Z,57.94
2018-08-03T00:31:03.148Z,58.14
2018-08-03T00:32:56.193Z,58.52
2018-08-03T00:33:56.204Z,58.62
2018-08-03T00:35:49.234Z,58.59
2018-08-03T00:36:49.263Z,58.88
2018-08-03T00:38:42.309Z,59.17
2018-08-03T00:39:42.318Z,58.59
2018-08-03T00:41:35.248Z,59.17
2018-08-03T00:42:35.276Z,58.88
2018-08-03T00:44:28.742Z,59.36
2018-08-03T00:45:28.725Z,59.27
2018-08-03T00:47:21.648Z,59.66
2018-08-03T00:48:21.681Z,59.46
2018-08-03T00:50:15.115Z,60.14
2018-08-03T00:51:15.126Z,60.04
2018-08-03T00:53:08.046Z,60.01
2018-08-03T00:54:08.074Z,60.21
2018-08-03T00:56:01.017Z,60.11
2018-08-03T00:57:01.027Z,60.11
2018-08-03T00:58:53.983Z,60.40
2018-08-03T00:59:53.976Z,60.88
2018-08-03T01:01:46.898Z,60.59
2018-08-03T01:02:46.930Z,60.50
2018-08-03T01:04:39.870Z,60.78
2018-08-03T01:05:39.880Z,60.69
2018-08-03T01:07:32.801Z,60.59
2018-08-03T01:08:32.830Z,60.50
2018-08-03T01:10:25.773Z,60.69
2018-08-03T01:11:25.786Z,60.78
2018-08-03T01:13:19.198Z,60.78
2018-08-03T01:14:19.227Z,60.88
2018-08-03T01:16:12.175Z,60.40
2018-08-03T01:17:12.184Z,60.17
2018-08-03T01:19:05.112Z,60.98
2018-08-03T01:20:05.140Z,60.57
2018-08-03T01:21:58.090Z,61.15
2018-08-03T01:22:58.100Z,61.33
2018-08-03T01:24:51.025Z,61.33
2018-08-03T01:25:51.049Z,61.15
2018-08-03T01:27:43.997Z,61.82
2018-08-03T01:28:44.004Z,61.63
2018-08-03T01:30:36.943Z,61.72
2018-08-03T01:31:36.952Z,61.72
2018-08-03T01:33:29.874Z,61.63
2018-08-03T01:34:29.903Z,62.59
2018-08-03T01:36:22.849Z,62.50
2018-08-03T01:37:22.857Z,62.69
2018-08-03T01:39:15.787Z,62.21
2018-08-03T01:40:15.814Z,62.69
2018-08-03T01:42:08.762Z,62.76
2018-08-03T01:43:08.783Z,63.56
2018-08-03T01:45:01.700Z,63.63
2018-08-03T01:46:01.729Z,63.34
2018-08-03T01:47:54.677Z,63.34
2018-08-03T01:48:54.681Z,63.14
2018-08-03T01:50:47.605Z,63.34
2018-08-03T01:51:47.634Z,63.63
2018-08-03T01:53:40.571Z,64.01
2018-08-03T01:54:40.579Z,64.11
2018-08-03T01:56:33.520Z,63.89
2018-08-03T01:57:33.531Z,63.92
2018-08-03T01:59:26.458Z,64.47
2018-08-03T02:00:26.496Z,64.59
2018-08-03T02:02:19.922Z,64.47
2018-08-03T02:03:19.974Z,64.56
2018-08-03T02:05:12.858Z,64.18
2018-08-03T02:06:12.880Z,65.14
2018-08-03T02:08:05.847Z,64.85
2018-08-03T02:09:05.834Z,65.14
2018-08-03T02:10:59.751Z,65.53
2018-08-03T02:11:59.782Z,65.53
2018-08-03T02:13:52.717Z,65.72
2018-08-03T02:14:52.727Z,65.43
2018-08-03T02:16:45.674Z,65.34
2018-08-03T02:17:45.678Z,65.43
2018-08-03T02:19:38.603Z,65.24
2018-08-03T02:20:38.630Z,65.53
2018-08-03T02:22:31.578Z,66.20
2018-08-03T02:23:31.582Z,65.72
2018-08-03T02:25:24.504Z,66.01
2018-08-03T02:26:24.532Z,65.88
2018-08-03T02:28:17.472Z,65.78
2018-08-03T02:29:17.479Z,65.69
2018-08-03T02:31:10.403Z,66.56
2018-08-03T02:32:10.429Z,66.36
2018-08-03T02:34:03.863Z,66.27
2018-08-03T02:35:03.879Z,66.36
2018-08-03T02:36:56.796Z,66.46
2018-08-03T02:37:56.824Z,66.46
2018-08-03T02:39:49.768Z,66.36
2018-08-03T02:40:49.776Z,67.14
2018-08-03T02:42:42.728Z,67.14
2018-08-03T02:43:42.731Z,66.85
2018-08-03T02:45:35.654Z,66.82
2018-08-03T02:46:35.682Z,67.33
2018-08-03T02:48:28.625Z,67.33
2018-08-03T02:49:28.636Z,67.52
2018-08-03T02:51:21.560Z,67.24
2018-08-03T02:52:21.586Z,67.14
2018-08-03T02:54:14.534Z,66.94
2018-08-03T02:55:14.537Z,67.43
2018-08-03T02:57:07.953Z,67.43
2018-08-03T02:58:07.981Z,67.78
2018-08-03T03:00:00.928Z,67.69
2018-08-03T03:01:00.933Z,67.97
2018-08-03T03:02:53.859Z,67.49
2018-08-03T03:03:53.890Z,68.17
2018-08-03T03:05:46.828Z,68.36
2018-08-03T03:06:46.837Z,68.26
2018-08-03T03:08:40.271Z,67.97
2018-08-03T03:09:40.284Z,68.55
2018-08-03T03:11:33.199Z,68.94
2018-08-03T03:12:33.226Z,68.94
2018-08-03T03:14:26.173Z,69.04
2018-08-03T03:15:26.182Z,68.94
2018-08-03T03:17:19.096Z,68.65
2018-08-03T03:18:19.126Z,68.65
2018-08-03T03:20:12.558Z,69.23
2018-08-03T03:21:12.566Z,68.75
2018-08-03T03:23:05.490Z,68.71
2018-08-03T03:24:05.520Z,68.94
2018-08-03T03:25:58.457Z,68.65
2018-08-03T03:26:58.465Z,68.62
2018-08-03T03:28:51.387Z,68.94
2018-08-03T03:29:51.417Z,69.42
2018-08-03T03:31:44.855Z,69.13
2018-08-03T03:32:44.942Z,69.52
2018-08-03T03:34:37.807Z,70.16
2018-08-03T03:35:37.809Z,69.97
2018-08-03T03:37:30.732Z,69.87
2018-08-03T03:38:30.760Z,69.78
2018-08-03T03:40:24.193Z,69.39
2018-08-03T03:41:24.204Z,70.06
2018-08-03T03:43:18.616Z,70.26
2018-08-03T03:44:18.642Z,70.64
2018-08-03T03:46:11.590Z,70.45
2018-08-03T03:47:11.601Z,70.54
2018-08-03T03:49:04.520Z,69.97
2018-08-03T03:50:04.543Z,70.26
2018-08-03T03:51:57.491Z,70.26
2018-08-03T03:52:57.495Z,70.26
2018-08-03T03:54:50.417Z,70.36
2018-08-03T03:55:50.444Z,70.54
2018-08-03T03:57:43.391Z,70.94
2018-08-03T03:58:43.395Z,70.84
2018-08-03T04:00:36.344Z,70.64
2018-08-03T04:01:36.351Z,69.97
2018-08-03T04:03:29.767Z,70.64
2018-08-03T04:04:29.796Z,70.36
2018-08-03T04:06:22.735Z,70.36
2018-08-03T04:07:22.741Z,70.64
2018-08-03T04:09:15.662Z,70.16
2018-08-03T04:10:15.691Z,70.36
2018-08-03T04:12:08.629Z,70.68
2018-08-03T04:13:08.638Z,70.26
2018-08-03T04:15:01.558Z,70.20
2018-08-03T04:16:01.589Z,69.42
2018-08-03T04:17:54.530Z,69.32
2018-08-03T04:18:54.536Z,68.75
2018-08-03T04:20:47.464Z,68.49
2018-08-03T04:21:47.490Z,68.01
2018-08-03T04:23:40.497Z,67.17
2018-08-03T04:24:40.501Z,67.08
2018-08-03T04:26:38.446Z,65.75
2018-08-03T04:27:38.452Z,66.05
2018-08-03T04:29:31.403Z,64.72
2018-08-03T04:30:31.427Z,65.01
2018-08-03T04:32:24.477Z,63.85
2018-08-03T04:33:24.488Z,63.31
2018-08-03T04:35:18.947Z,62.82
2018-08-03T04:36:18.974Z,62.66
2018-08-03T04:38:12.957Z,61.88
2018-08-03T04:39:12.952Z,61.91
2018-08-03T04:41:06.013Z,60.85
2018-08-03T04:42:06.038Z,60.49
2018-08-03T04:43:59.059Z,60.30
2018-08-03T04:44:59.065Z,59.55
2018-08-03T04:46:52.111Z,58.61
2018-08-03T04:47:52.122Z,58.41
2018-08-03T04:49:45.149Z,57.47
2018-08-03T04:50:45.181Z,56.89
2018-08-03T04:52:38.225Z,56.04
2018-08-03T04:53:38.237Z,55.27
2018-08-03T04:55:41.176Z,55.39
2018-08-03T04:56:41.205Z,54.42
2018-08-03T04:58:34.155Z,53.83
2018-08-03T04:59:34.155Z,53.47
2018-08-03T05:01:27.081Z,52.59
2018-08-03T05:02:27.108Z,52.53
2018-08-03T05:04:20.055Z,52.53
2018-08-03T05:05:20.066Z,52.53
2018-08-03T05:07:13.007Z,51.58
2018-08-03T05:08:13.015Z,51.48
2018-08-03T05:10:05.943Z,51.02
2018-08-03T05:11:05.971Z,50.43
2018-08-03T05:12:58.916Z,50.24
2018-08-03T05:13:58.924Z,49.76
2018-08-03T05:15:51.858Z,49.66
2018-08-03T05:16:51.886Z,50.04
2018-08-03T05:18:44.830Z,50.41
2018-08-03T05:19:44.839Z,51.39
2018-08-03T05:21:37.766Z,51.39
2018-08-03T05:22:37.791Z,51.26
2018-08-03T05:24:30.738Z,52.65
2018-08-03T05:25:30.746Z,52.82
2018-08-03T05:27:23.672Z,53.50
2018-08-03T05:28:23.700Z,53.08
2018-08-03T05:30:16.694Z,53.96
2018-08-03T05:31:16.653Z,54.52
2018-08-03T05:33:09.601Z,55.39
2018-08-03T05:34:09.606Z,55.00
2018-08-03T05:36:02.623Z,56.04
2018-08-03T05:37:02.560Z,56.82
2018-08-03T05:38:55.504Z,56.89
2018-08-03T05:39:55.513Z,56.98
2018-08-03T05:41:48.444Z,57.08
2018-08-03T05:42:48.468Z,57.57
2018-08-03T05:44:41.412Z,57.67
2018-08-03T05:45:41.424Z,57.57
2018-08-03T05:47:34.345Z,57.47
2018-08-03T05:48:34.373Z,57.57
2018-08-03T05:50:27.318Z,57.86
2018-08-03T05:51:27.334Z,58.34
2018-08-03T05:53:20.252Z,58.05
2018-08-03T05:54:20.284Z,58.34
2018-08-03T05:56:13.226Z,58.28
2018-08-03T05:57:13.232Z,58.47
2018-08-03T05:59:06.184Z,57.50
2018-08-03T06:00:06.189Z,57.62
2018-08-03T06:01:59.116Z,56.46
2018-08-03T06:02:59.147Z,56.20
2018-08-03T06:04:52.090Z,55.44
2018-08-03T06:05:52.098Z,54.50
2018-08-03T06:07:45.027Z,53.97
2018-08-03T06:08:45.057Z,52.53
2018-08-03T06:10:38.005Z,50.63
2018-08-03T06:11:38.013Z,49.88
2018-08-03T06:13:30.944Z,48.36
2018-08-03T06:14:30.973Z,47.48
2018-08-03T06:16:23.921Z,46.06
2018-08-03T06:17:23.934Z,46.28
2018-08-03T06:19:16.865Z,45.05
2018-08-03T06:20:16.897Z,44.07
2018-08-03T06:22:09.852Z,43.51
2018-08-03T06:23:09.861Z,43.02
2018-08-03T06:25:02.817Z,42.74
2018-08-03T06:26:02.826Z,41.78
2018-08-03T06:27:55.759Z,41.51
2018-08-03T06:28:55.794Z,41.02
2018-08-03T06:30:48.750Z,41.68
2018-08-03T06:31:48.764Z,41.61
2018-08-03T06:33:41.695Z,41.71
2018-08-03T06:34:41.725Z,41.51
2018-08-03T06:36:34.685Z,42.18
2018-08-03T06:37:34.697Z,42.15
2018-08-03T06:39:27.634Z,42.91
2018-08-03T06:40:27.666Z,43.38
2018-08-03T06:42:20.626Z,43.68
2018-08-03T06:43:20.636Z,43.21
2018-08-03T06:45:13.578Z,42.37
2018-08-03T06:46:13.614Z,42.19
2018-08-03T06:48:06.574Z,40.84
2018-08-03T06:49:06.583Z,40.72
2018-08-03T06:50:59.543Z,40.94
2018-08-03T06:51:59.557Z,41.14
2018-08-03T06:53:52.549Z,42.49
2018-08-03T06:54:52.528Z,42.00
2018-08-03T06:56:45.487Z,41.90
2018-08-03T06:57:45.500Z,41.61
2018-08-03T06:59:38.438Z,42.47
2018-08-03T07:00:38.478Z,42.29
2018-08-03T07:02:31.433Z,42.08
2018-08-03T07:03:31.444Z,42.27
2018-08-03T07:05:24.385Z,42.66
2018-08-03T07:06:24.420Z,42.37
2018-08-03T07:08:17.379Z,42.84
2018-08-03T07:09:17.395Z,43.23
2018-08-03T07:11:10.336Z,42.66
2018-08-03T07:12:10.372Z,42.66
2018-08-03T07:14:03.331Z,42.55
2018-08-03T07:15:03.350Z,42.57
2018-08-03T07:16:56.462Z,42.47
2018-08-03T07:17:56.476Z,42.65
2018-08-03T07:19:49.446Z,42.84
2018-08-03T07:20:49.456Z,43.04
2018-08-03T07:22:42.418Z,43.04
2018-08-03T07:23:42.426Z,43.43
2018-08-03T07:25:35.362Z,43.43
2018-08-03T07:26:35.412Z,43.52
2018-08-03T07:28:28.353Z,44.60
2018-08-03T07:29:28.360Z,44.78
2018-08-03T07:31:21.299Z,44.78
2018-08-03T07:32:21.332Z,45.15
2018-08-03T07:34:14.290Z,45.23
2018-08-03T07:35:14.300Z,46.30
2018-08-03T07:37:07.230Z,46.08
2018-08-03T07:38:07.263Z,46.77
2018-08-03T07:40:00.234Z,46.79
2018-08-03T07:41:00.238Z,46.59
2018-08-03T07:42:53.236Z,46.37
2018-08-03T07:43:53.200Z,46.57
2018-08-03T07:45:46.133Z,47.45
2018-08-03T07:46:46.161Z,47.38
2018-08-03T07:48:39.163Z,46.20
2018-08-03T07:49:39.125Z,46.50
2018-08-03T07:51:32.060Z,46.30
2018-08-03T07:52:32.138Z,46.01
2018-08-03T07:54:25.050Z,46.18
2018-08-03T07:55:25.060Z,46.47
2018-08-03T07:57:17.993Z,46.86
2018-08-03T07:58:18.026Z,47.43
2018-08-03T08:00:10.972Z,47.72
2018-08-03T08:01:10.983Z,48.02
2018-08-03T08:03:03.942Z,48.02
2018-08-03T08:04:03.944Z,47.53
2018-08-03T08:05:56.895Z,46.36
2018-08-03T08:06:56.906Z,46.26
2018-08-03T08:08:49.861Z,45.98
2018-08-03T08:09:49.868Z,46.57
2018-08-03T08:11:42.798Z,45.98
2018-08-03T08:12:42.830Z,46.18
2018-08-03T08:14:35.778Z,46.86
2018-08-03T08:15:35.856Z,45.89
2018-08-03T08:17:28.718Z,46.08
2018-08-03T08:18:28.755Z,47.45
2018-08-03T08:20:21.699Z,46.01
2018-08-03T08:21:21.713Z,45.32
2018-08-03T08:23:14.645Z,45.23
2018-08-03T08:24:14.676Z,45.52
2018-08-03T08:26:07.645Z,45.03
2018-08-03T08:27:07.639Z,44.83
2018-08-03T08:29:00.569Z,44.73
2018-08-03T08:30:00.602Z,44.83
2018-08-03T08:31:53.553Z,44.85
2018-08-03T08:32:53.562Z,44.95
2018-08-03T08:34:46.518Z,44.56
2018-08-03T08:35:46.526Z,44.66
2018-08-03T08:37:39.454Z,43.70
2018-08-03T08:38:39.487Z,43.02
2018-08-03T08:40:32.441Z,42.65
2018-08-03T08:41:32.447Z,42.84
2018-08-03T08:43:25.413Z,43.23
2018-08-03T08:44:25.425Z,42.45
2018-08-03T08:46:18.357Z,42.74
2018-08-03T08:47:18.369Z,42.45
2018-08-03T08:49:11.352Z,42.25
2018-08-03T08:50:11.336Z,42.94
2018-08-03T08:52:04.288Z,42.45
2018-08-03T08:53:04.299Z,42.55
2018-08-03T08:54:57.231Z,41.86
2018-08-03T08:55:57.265Z,42.25
2018-08-03T08:57:50.229Z,41.98
2018-08-03T08:58:50.252Z,41.19
2018-08-03T09:00:43.199Z,41.09
2018-08-03T09:01:43.205Z,40.90
2018-08-03T09:03:36.139Z,42.57
2018-08-03T09:04:36.166Z,41.19
2018-08-03T09:06:29.122Z,41.88
2018-08-03T09:07:29.178Z,41.49
2018-08-03T09:09:22.061Z,40.61
2018-08-03T09:10:22.090Z,41.09
2018-08-03T09:12:15.041Z,40.90
2018-08-03T09:13:15.086Z,41.78
2018-08-03T09:15:07.984Z,40.11
2018-08-03T09:16:08.017Z,40.21
2018-08-03T09:18:00.972Z,39.80
2018-08-03T09:19:01.000Z,40.00
2018-08-03T09:20:53.907Z,40.29
2018-08-03T09:21:53.940Z,40.00
2018-08-03T09:23:46.896Z,40.88
2018-08-03T09:24:47.016Z,40.31
2018-08-03T09:26:39.866Z,39.53
2018-08-03T09:27:39.880Z,39.33
2018-08-03T09:29:32.806Z,39.03
2018-08-03T09:30:32.838Z,39.53
2018-08-03T09:32:25.797Z,39.53
2018-08-03T09:33:25.806Z,39.33
2018-08-03T09:35:18.738Z,39.54
2018-08-03T09:36:18.771Z,38.74
2018-08-03T09:38:11.727Z,38.96
2018-08-03T09:39:11.750Z,38.85
2018-08-03T09:41:04.667Z,38.46
2018-08-03T09:42:04.699Z,38.37
2018-08-03T09:43:57.654Z,38.27
2018-08-03T09:44:57.661Z,38.66
2018-08-03T09:46:50.651Z,38.27
2018-08-03T09:47:50.637Z,37.88
2018-08-03T09:49:43.574Z,38.27
2018-08-03T09:50:43.584Z,37.70
2018-08-03T09:52:36.542Z,36.91
2018-08-03T09:53:36.550Z,36.24
2018-08-03T09:55:29.649Z,34.47
2018-08-03T09:56:29.680Z,33.20
2018-08-03T09:58:22.642Z,32.02
2018-08-03T09:59:22.653Z,32.90
2018-08-03T10:01:15.585Z,33.29
2018-08-03T10:02:15.623Z,32.61
2018-08-03T10:04:08.575Z,33.79
2018-08-03T10:05:08.582Z,33.69
2018-08-03T10:07:01.515Z,32.61
2018-08-03T10:08:01.545Z,31.82
2018-08-03T10:09:54.702Z,33.29
2018-08-03T10:10:54.509Z,33.87
2018-08-03T10:12:47.480Z,34.26
2018-08-03T10:13:47.474Z,34.46
2018-08-03T10:15:40.588Z,34.85
2018-08-03T10:16:40.436Z,34.25
2018-08-03T10:18:33.396Z,34.34
2018-08-03T10:19:33.408Z,34.74
2018-08-03T10:21:26.333Z,34.74
2018-08-03T10:22:26.416Z,34.74
2018-08-03T10:24:19.323Z,34.34
2018-08-03T10:25:19.334Z,34.75
2018-08-03T10:27:12.268Z,33.58
2018-08-03T10:28:12.302Z,33.38
2018-08-03T10:30:05.259Z,33.08
2018-08-03T10:31:05.266Z,33.67
2018-08-03T10:32:58.205Z,32.89
2018-08-03T10:33:58.238Z,33.28
2018-08-03T10:35:51.189Z,33.39
2018-08-03T10:36:51.203Z,32.61
2018-08-03T10:38:44.169Z,31.92
2018-08-03T10:39:44.166Z,32.71
2018-08-03T10:41:37.100Z,31.63
2018-08-03T10:42:37.136Z,32.20
2018-08-03T10:44:30.091Z,33.08
2018-08-03T10:45:30.103Z,32.59
2018-08-03T10:47:23.035Z,32.89
2018-08-03T10:48:23.066Z,33.28
2018-08-03T10:50:16.020Z,33.10
2018-08-03T10:51:16.073Z,33.39
2018-08-03T10:53:08.965Z,33.29
2018-08-03T10:54:08.998Z,33.20
2018-08-03T10:56:01.952Z,33.10
2018-08-03T10:57:01.959Z,32.81
2018-08-03T10:58:54.892Z,32.92
2018-08-03T10:59:54.924Z,33.02
2018-08-03T11:01:47.881Z,32.04
2018-08-03T11:02:47.889Z,31.45
2018-08-03T11:04:40.846Z,30.68
2018-08-03T11:05:40.853Z,30.46
2018-08-03T11:07:33.799Z,30.76
2018-08-03T11:08:33.834Z,30.18
2018-08-03T11:10:26.791Z,29.59
2018-08-03T11:11:26.799Z,29.49
2018-08-03T11:13:19.779Z,29.69
2018-08-03T11:14:19.778Z,30.30
2018-08-03T11:16:12.735Z,29.11
2018-08-03T11:17:12.745Z,28.92
2018-08-03T11:19:05.676Z,28.74
2018-08-03T11:20:05.710Z,28.93
2018-08-03T11:21:58.667Z,28.06
2018-08-03T11:22:58.680Z,26.88
2018-08-03T11:24:51.617Z,26.78
2018-08-03T11:25:51.644Z,26.78
2018-08-03T11:27:44.601Z,28.08
2018-08-03T11:28:44.614Z,27.78
2018-08-03T11:30:37.570Z,27.00
2018-08-03T11:31:37.579Z,27.50
2018-08-03T11:33:30.514Z,27.10
2018-08-03T11:34:30.589Z,27.00
2018-08-03T11:36:23.505Z,26.61
2018-08-03T11:37:23.519Z,25.54
2018-08-03T11:39:16.446Z,26.72
2018-08-03T11:40:16.481Z,26.62
2018-08-03T11:42:09.439Z,26.72
2018-08-03T11:43:09.449Z,27.00
2018-08-03T11:45:02.385Z,27.50
2018-08-03T11:46:02.417Z,27.19
2018-08-03T11:47:55.369Z,28.08
2018-08-03T11:48:55.383Z,28.56
2018-08-03T11:50:48.321Z,28.16
2018-08-03T11:51:48.350Z,27.86
2018-08-03T11:53:41.309Z,27.75
2018-08-03T11:54:41.325Z,28.05
2018-08-03T11:56:34.301Z,27.06
2018-08-03T11:57:34.289Z,27.75
2018-08-03T11:59:27.249Z,27.94
2018-08-03T12:00:27.258Z,28.13
2018-08-03T12:02:20.218Z,28.13
2018-08-03T12:03:20.225Z,27.44
2018-08-03T12:05:13.158Z,28.64
2018-08-03T12:06:13.192Z,27.74
2018-08-03T12:08:06.156Z,28.42
2018-08-03T12:09:06.159Z,27.74
2018-08-03T12:10:59.101Z,27.84
2018-08-03T12:11:59.132Z,28.23
2018-08-03T12:13:52.090Z,28.93
2018-08-03T12:14:52.102Z,28.64
2018-08-03T12:16:45.039Z,27.86
2018-08-03T12:17:45.209Z,27.76
2018-08-03T12:19:38.029Z,27.96
2018-08-03T12:20:38.039Z,26.88
2018-08-03T12:22:30.997Z,27.67
2018-08-03T12:23:31.022Z,27.87
2018-08-03T12:25:23.940Z,27.48
2018-08-03T12:26:23.974Z,26.30
2018-08-03T12:28:16.926Z,26.81
2018-08-03T12:29:16.939Z,27.79
2018-08-03T12:31:09.906Z,26.62
2018-08-03T12:32:09.906Z,26.53
2018-08-03T12:34:02.865Z,25.44
2018-08-03T12:35:02.875Z,26.31
2018-08-03T12:36:55.836Z,26.40
2018-08-03T12:37:55.844Z,26.50
2018-08-03T12:39:48.801Z,27.39
2018-08-03T12:40:48.812Z,26.70
2018-08-03T12:42:41.804Z,26.70
2018-08-03T12:43:41.788Z,26.50
2018-08-03T12:45:34.723Z,26.89
2018-08-03T12:46:34.758Z,26.88
2018-08-03T12:48:27.717Z,27.37
2018-08-03T12:49:27.724Z,27.57
2018-08-03T12:51:20.662Z,26.98
2018-08-03T12:52:20.694Z,27.37
2018-08-03T12:54:13.654Z,26.78
2018-08-03T12:55:13.665Z,27.36
2018-08-03T12:57:06.602Z,27.74
2018-08-03T12:58:06.633Z,28.03
2018-08-03T12:59:59.585Z,28.23
2018-08-03T13:00:59.600Z,28.82
2018-08-03T13:02:52.568Z,28.63
2018-08-03T13:03:52.573Z,27.95
2018-08-03T13:05:45.505Z,27.56
2018-08-03T13:06:45.538Z,28.03
2018-08-03T13:08:38.500Z,28.03
2018-08-03T13:09:38.506Z,28.13
2018-08-03T13:11:31.444Z,27.74
2018-08-03T13:12:31.477Z,27.85
2018-08-03T13:14:24.434Z,27.56
2018-08-03T13:15:24.445Z,26.67
2018-08-03T13:17:17.377Z,26.68
2018-08-03T13:18:17.411Z,26.58
2018-08-03T13:20:10.420Z,26.68
2018-08-03T13:21:10.493Z,26.68
2018-08-03T13:23:03.400Z,26.68
2018-08-03T13:24:03.439Z,26.29
2018-08-03T13:25:56.336Z,26.79
2018-08-03T13:26:56.376Z,26.70
2018-08-03T13:28:49.329Z,26.48
2018-08-03T13:29:49.339Z,26.58
2018-08-03T13:31:42.279Z,26.68
2018-08-03T13:32:42.313Z,27.09
2018-08-03T13:34:35.278Z,27.30
2018-08-03T13:35:35.285Z,26.12
2018-08-03T13:37:28.215Z,25.52
2018-08-03T13:38:28.249Z,25.33
2018-08-03T13:40:21.208Z,26.23
2018-08-03T13:41:21.219Z,26.32
2018-08-03T13:43:14.178Z,25.74
2018-08-03T13:44:14.189Z,25.65
2018-08-03T13:46:07.148Z,24.86
2018-08-03T13:47:07.158Z,24.07
2018-08-03T13:49:00.117Z,25.05
2018-08-03T13:50:00.127Z,24.96
2018-08-03T13:51:53.062Z,24.56
2018-08-03T13:52:53.095Z,24.75
2018-08-03T13:54:46.048Z,24.55
2018-08-03T13:55:46.063Z,25.33
2018-08-03T13:57:39.028Z,25.43
2018-08-03T13:58:39.029Z,25.42
2018-08-03T14:00:31.989Z,25.51
2018-08-03T14:01:32.003Z,25.61
2018-08-03T14:03:24.935Z,26.30
2018-08-03T14:04:25.017Z,25.51
2018-08-03T14:06:17.967Z,25.32
2018-08-03T14:07:17.971Z,25.99
2018-08-03T14:09:10.935Z,26.29
2018-08-03T14:10:10.938Z,25.89
2018-08-03T14:12:03.910Z,25.51
2018-08-03T14:13:03.908Z,25.51
2018-08-03T14:14:56.867Z,25.42
2018-08-03T14:15:56.877Z,25.52
2018-08-03T14:17:49.811Z,25.62
2018-08-03T14:18:49.845Z,25.52
2018-08-03T14:20:42.803Z,25.54
2018-08-03T14:21:42.814Z,25.04
2018-08-03T14:23:35.749Z,24.96
2018-08-03T14:24:35.782Z,24.46
2018-08-03T14:26:28.739Z,25.05
2018-08-03T14:27:28.748Z,23.97
2018-08-03T14:29:21.707Z,23.97
2018-08-03T14:30:21.717Z,23.57
2018-08-03T14:32:14.654Z,23.57
2018-08-03T14:33:14.688Z,23.07
2018-08-03T14:35:07.646Z,23.17
2018-08-03T14:36:07.659Z,22.77
2018-08-03T14:38:00.622Z,23.46
2018-08-03T14:39:00.630Z,24.04
2018-08-03T14:40:53.583Z,23.94
2018-08-03T14:41:53.593Z,24.04
2018-08-03T14:43:46.528Z,24.13
2018-08-03T14:44:46.563Z,24.53
2018-08-03T14:46:39.520Z,24.05
2018-08-03T14:47:39.528Z,23.55
2018-08-03T14:49:32.486Z,24.82
2018-08-03T14:50:32.494Z,25.12
2018-08-03T14:52:25.431Z,25.42
2018-08-03T14:53:25.464Z,25.42
2018-08-03T14:55:18.476Z,24.63
2018-08-03T14:56:18.436Z,24.13
2018-08-03T14:58:11.397Z,23.75
2018-08-03T14:59:12.968Z,23.15
2018-08-03T15:01:04.852Z,23.94
2018-08-03T15:02:04.871Z,23.84
2018-08-03T15:03:57.799Z,23.35
2018-08-03T15:04:57.837Z,23.44
2018-08-03T15:06:50.828Z,24.13
2018-08-03T15:07:50.925Z,23.94
2018-08-03T15:09:43.797Z,23.84
2018-08-03T15:10:43.807Z,23.74
2018-08-03T15:12:36.743Z,24.13
2018-08-03T15:13:36.778Z,24.92
2018-08-03T15:15:29.730Z,24.32
2018-08-03T15:16:29.842Z,24.13
2018-08-03T15:18:22.677Z,24.74
2018-08-03T15:19:22.814Z,24.15
2018-08-03T15:21:15.763Z,24.74
2018-08-03T15:22:15.716Z,24.74
2018-08-03T15:24:08.667Z,25.12
2018-08-03T15:25:08.732Z,25.13
2018-08-03T15:27:01.657Z,26.12
2018-08-03T15:28:01.666Z,25.42
2018-08-03T15:29:54.663Z,25.62
2018-08-03T15:30:54.634Z,25.62
2018-08-03T15:32:47.566Z,25.23
2018-08-03T15:33:47.602Z,25.03
2018-08-03T15:35:40.575Z,25.03
2018-08-03T15:36:40.708Z,24.93
2018-08-03T15:38:33.511Z,25.23
2018-08-03T15:39:33.541Z,25.13
2018-08-03T15:41:26.499Z,25.24
2018-08-03T15:42:26.511Z,25.43
2018-08-03T15:44:19.443Z,24.45
2018-08-03T15:45:19.479Z,24.35
2018-08-03T15:47:12.463Z,24.16
2018-08-03T15:48:12.445Z,24.26
2018-08-03T15:50:05.412Z,24.55
2018-08-03T15:51:05.413Z,24.65
2018-08-03T15:52:58.349Z,23.76
2018-08-03T15:53:58.383Z,24.24
2018-08-03T15:55:51.340Z,25.04
2018-08-03T15:56:51.351Z,25.04
2018-08-03T15:58:44.296Z,24.24
2018-08-03T15:59:44.319Z,24.16
2018-08-03T16:01:37.278Z,24.34
2018-08-03T16:02:37.287Z,24.35
2018-08-03T16:04:30.228Z,24.06
2018-08-03T16:05:30.255Z,24.75
2018-08-03T16:07:23.212Z,24.26
2018-08-03T16:08:23.224Z,25.24
2018-08-03T16:10:16.179Z,24.65
2018-08-03T16:11:16.189Z,24.55
2018-08-03T16:13:09.125Z,24.26
2018-08-03T16:14:09.165Z,24.26
2018-08-03T16:16:02.118Z,24.35
2018-08-03T16:17:02.128Z,23.96
2018-08-03T16:18:55.109Z,24.34
2018-08-03T16:19:55.101Z,24.15
2018-08-03T16:21:48.056Z,24.24
2018-08-03T16:22:48.065Z,24.44
2018-08-03T16:24:41.003Z,24.34
2018-08-03T16:25:41.071Z,24.24
2018-08-03T16:27:33.991Z,24.84
2018-08-03T16:28:34.008Z,24.93
2018-08-03T16:30:26.957Z,25.03
2018-08-03T16:31:26.970Z,24.85
2018-08-03T16:33:19.905Z,24.93
2018-08-03T16:34:19.938Z,25.13
2018-08-03T16:36:12.896Z,25.33
2018-08-03T16:37:12.905Z,25.03
2018-08-03T16:39:05.838Z,25.90
2018-08-03T16:40:05.870Z,25.81
2018-08-03T16:41:58.828Z,25.51
2018-08-03T16:42:58.841Z,25.51
2018-08-03T16:44:51.775Z,26.30
2018-08-03T16:45:51.808Z,26.40
2018-08-03T16:47:44.765Z,26.41
2018-08-03T16:48:44.773Z,25.61
2018-08-03T16:50:37.733Z,25.42
2018-08-03T16:51:37.743Z,26.20
2018-08-03T16:53:30.674Z,26.70
2018-08-03T16:54:30.708Z,26.79
2018-08-03T16:56:23.666Z,26.59
2018-08-03T16:57:23.677Z,26.48
2018-08-03T16:59:17.103Z,26.58
2018-08-03T17:00:17.140Z,27.17
2018-08-03T17:02:10.097Z,26.48
2018-08-03T17:03:10.110Z,26.48
2018-08-03T17:05:03.039Z,26.78
2018-08-03T17:06:03.074Z,26.78
2018-08-03T17:07:56.031Z,26.78
2018-08-03T17:08:56.097Z,26.78
2018-08-03T17:10:48.994Z,26.78
2018-08-03T17:11:49.007Z,26.88
2018-08-03T17:13:41.942Z,26.97
2018-08-03T17:14:41.976Z,27.26
2018-08-03T17:16:34.925Z,27.06
2018-08-03T17:17:34.941Z,27.66
2018-08-03T17:19:27.873Z,26.97
2018-08-03T17:20:27.906Z,26.95
2018-08-03T17:22:20.863Z,27.64
2018-08-03T17:23:20.873Z,27.94
2018-08-03T17:25:13.812Z,28.41
2018-08-03T17:26:13.845Z,28.41
2018-08-03T17:28:06.875Z,29.00
2018-08-03T17:29:06.809Z,28.89
2018-08-03T17:30:59.767Z,29.20
2018-08-03T17:31:59.818Z,29.10
2018-08-03T17:33:52.707Z,29.97
2018-08-03T17:34:52.741Z,29.48
2018-08-03T17:36:45.704Z,29.87
2018-08-03T17:37:45.705Z,29.49
2018-08-03T17:39:38.635Z,29.69
2018-08-03T17:40:38.670Z,29.48
2018-08-03T17:42:31.708Z,30.08
2018-08-03T17:43:31.633Z,29.49
2018-08-03T17:45:24.583Z,29.59
2018-08-03T17:46:24.597Z,29.69
2018-08-03T17:48:17.554Z,29.97
2018-08-03T17:49:17.565Z,30.56
2018-08-03T17:51:10.521Z,30.46
2018-08-03T17:52:10.532Z,31.05
2018-08-03T17:54:03.465Z,30.85
2018-08-03T17:55:03.497Z,30.36
2018-08-03T17:56:56.463Z,31.05
2018-08-03T17:57:56.461Z,31.05
2018-08-03T17:59:49.397Z,30.95
2018-08-03T18:00:49.428Z,30.85
2018-08-03T18:02:42.383Z,31.05
2018-08-03T18:03:42.394Z,31.05
2018-08-03T18:05:35.327Z,30.95
2018-08-03T18:06:35.359Z,31.15
2018-08-03T18:08:28.314Z,30.77
2018-08-03T18:09:28.376Z,30.68
2018-08-03T18:11:21.280Z,30.79
2018-08-03T18:12:21.289Z,30.08
2018-08-03T18:14:14.224Z,30.10
2018-08-03T18:15:14.256Z,29.90
2018-08-03T18:17:07.212Z,30.49
2018-08-03T18:18:07.223Z,30.19
2018-08-03T18:20:00.162Z,30.08
2018-08-03T18:21:00.194Z,30.58
2018-08-03T18:22:53.151Z,30.46
2018-08-03T18:23:53.163Z,30.46
2018-08-03T18:25:46.098Z,30.46
2018-08-03T18:26:46.129Z,31.05
2018-08-03T18:28:39.118Z,31.43
2018-08-03T18:29:39.094Z,31.81
2018-08-03T18:31:32.043Z,33.26
2018-08-03T18:32:32.057Z,33.64
2018-08-03T18:34:24.987Z,34.81